sensor_id;sensor_type;location;lat;lon;timestamp;temperature;humidity
66920;DHT22;53831;52.090;17.026;2023-07-31T00:00:58;16.10;99.90
66920;DHT22;53831;52.090;17.026;2023-07-31T00:01:58;16.10;99.90
66920;DHT22;53831;52.090;17.026;2023-07-31T00:02:59;16.10;99.90
66920;DHT22;53831;52.090;17.026;2023-07-31T00:03:59;16.10;99.90
66920;DHT22;53831;52.090;17.026;2023-07-31T00:05:00;16.20;99.90
66920;DHT22;53831;52.090;17.026;2023-07-31T00:06:01;16.10;99.90
66920;DHT22;53831;52.090;17.026;2023-07-31T00:07:01;16.20;99.90
66920;DHT22;53831;52.090;17.026;2023-07-31T00:08:04;16.20;99.90
66920;DHT22;53831;52.090;17.026;2023-07-31T00:09:05;16.10;99.90
66920;DHT22;53831;52.090;17.026;2023-07-31T00:10:05;16.10;99.90
66920;DHT22;53831;52.090;17.026;2023-07-31T00:11:06;16.10;99.90
66920;DHT22;53831;52.090;17.026;2023-07-31T00:12:07;16.10;99.90
66920;DHT22;53831;52.090;17.026;2023-07-31T00:13:07;16.00;99.90
66920;DHT22;53831;52.090;17.026;2023-07-31T00:14:08;16.00;99.90
66920;DHT22;53831;52.090;17.026;2023-07-31T00:15:08;16.00;99.90
66920;DHT22;53831;52.090;17.026;2023-07-31T00:16:09;16.00;99.90
66920;DHT22;53831;52.090;17.026;2023-07-31T00:17:10;15.90;99.90
66920;DHT22;53831;52.090;17.026;2023-07-31T00:18:10;16.00;99.90
66920;DHT22;53831;52.090;17.026;2023-07-31T00:19:11;15.90;99.90
66920;DHT22;53831;52.090;17.026;2023-07-31T00:20:12;15.90;99.90
66920;DHT22;53831;52.090;17.026;2023-07-31T00:21:12;15.90;99.90
66920;DHT22;53831;52.090;17.026;2023-07-31T00:22:13;15.90;99.90
66920;DHT22;53831;52.090;17.026;2023-07-31T00:23:13;15.90;99.90
66920;DHT22;53831;52.090;17.026;2023-07-31T00:24:14;15.90;99.90
66920;DHT22;53831;52.090;17.026;2023-07-31T00:25:14;15.90;99.90
66920;DHT22;53831;52.090;17.026;2023-07-31T00:26:15;15.80;99.90
66920;DHT22;53831;52.090;17.026;2023-07-31T00:27:15;15.90;99.90
66920;DHT22;53831;52.090;17.026;2023-07-31T00:28:18;15.80;99.90
66920;DHT22;53831;52.090;17.026;2023-07-31T00:29:18;15.80;99.90
66920;DHT22;53831;52.090;17.026;2023-07-31T00:30:19;15.80;99.90
66920;DHT22;53831;52.090;17.026;2023-07-31T00:31:19;15.80;99.90
66920;DHT22;53831;52.090;17.026;2023-07-31T00:32:20;15.80;99.90
66920;DHT22;53831;52.090;17.026;2023-07-31T00:33:20;15.80;99.90
66920;DHT22;53831;52.090;17.026;2023-07-31T00:34:21;15.80;99.90
66920;DHT22;53831;52.090;17.026;2023-07-31T00:35:21;15.80;99.90
66920;DHT22;53831;52.090;17.026;2023-07-31T00:36:22;15.70;99.90
66920;DHT22;53831;52.090;17.026;2023-07-31T00:37:23;15.70;99.90
66920;DHT22;53831;52.090;17.026;2023-07-31T00:38:23;15.70;99.90
66920;DHT22;53831;52.090;17.026;2023-07-31T00:39:24;15.70;99.90
66920;DHT22;53831;52.090;17.026;2023-07-31T00:40:24;15.70;99.90
66920;DHT22;53831;52.090;17.026;2023-07-31T00:41:25;15.70;99.90
66920;DHT22;53831;52.090;17.026;2023-07-31T00:42:26;15.70;99.90
66920;DHT22;53831;52.090;17.026;2023-07-31T00:43:26;15.70;99.90
66920;DHT22;53831;52.090;17.026;2023-07-31T00:44:27;15.70;99.90
66920;DHT22;53831;52.090;17.026;2023-07-31T00:45:27;15.60;99.90
66920;DHT22;53831;52.090;17.026;2023-07-31T00:46:29;15.60;99.90
66920;DHT22;53831;52.090;17.026;2023-07-31T00:47:30;15.70;99.90
66920;DHT22;53831;52.090;17.026;2023-07-31T00:48:31;15.60;99.90
66920;DHT22;53831;52.090;17.026;2023-07-31T00:49:32;15.70;99.90
66920;DHT22;53831;52.090;17.026;2023-07-31T00:50:33;15.70;99.90
66920;DHT22;53831;52.090;17.026;2023-07-31T00:51:35;15.70;99.90
66920;DHT22;53831;52.090;17.026;2023-07-31T00:52:35;15.70;99.90
66920;DHT22;53831;52.090;17.026;2023-07-31T00:53:37;15.70;99.90
66920;DHT22;53831;52.090;17.026;2023-07-31T00:54:37;15.60;99.90
66920;DHT22;53831;52.090;17.026;2023-07-31T00:55:38;15.60;99.90
66920;DHT22;53831;52.090;17.026;2023-07-31T00:56:40;15.60;99.90
66920;DHT22;53831;52.090;17.026;2023-07-31T00:57:41;15.60;99.90
66920;DHT22;53831;52.090;17.026;2023-07-31T00:58:42;15.60;99.90
66920;DHT22;53831;52.090;17.026;2023-07-31T00:59:42;15.60;99.90
66920;DHT22;53831;52.090;17.026;2023-07-31T01:00:43;15.60;99.90
66920;DHT22;53831;52.090;17.026;2023-07-31T01:01:44;15.50;99.90
66920;DHT22;53831;52.090;17.026;2023-07-31T01:02:45;15.60;99.90
66920;DHT22;53831;52.090;17.026;2023-07-31T01:03:46;15.60;99.90
66920;DHT22;53831;52.090;17.026;2023-07-31T01:04:47;15.50;99.90
66920;DHT22;53831;52.090;17.026;2023-07-31T01:05:49;15.50;99.90
66920;DHT22;53831;52.090;17.026;2023-07-31T01:06:56;15.50;99.90
66920;DHT22;53831;52.090;17.026;2023-07-31T01:08:04;15.50;99.90
66920;DHT22;53831;52.090;17.026;2023-07-31T01:10:08;15.50;99.90
66920;DHT22;53831;52.090;17.026;2023-07-31T01:11:15;15.50;99.90
66920;DHT22;53831;52.090;17.026;2023-07-31T01:12:16;15.50;99.90
66920;DHT22;53831;52.090;17.026;2023-07-31T01:13:18;15.50;99.90
66920;DHT22;53831;52.090;17.026;2023-07-31T01:14:19;15.50;99.90
66920;DHT22;53831;52.090;17.026;2023-07-31T01:15:20;15.50;99.90
66920;DHT22;53831;52.090;17.026;2023-07-31T01:16:21;15.40;99.90
66920;DHT22;53831;52.090;17.026;2023-07-31T01:17:21;15.40;99.90
66920;DHT22;53831;52.090;17.026;2023-07-31T01:18:22;15.40;99.90
66920;DHT22;53831;52.090;17.026;2023-07-31T01:19:23;15.40;99.90
66920;DHT22;53831;52.090;17.026;2023-07-31T01:20:24;15.40;99.90
66920;DHT22;53831;52.090;17.026;2023-07-31T01:26:30;15.40;99.90
66920;DHT22;53831;52.090;17.026;2023-07-31T01:27:34;15.40;99.90
66920;DHT22;53831;52.090;17.026;2023-07-31T01:30:47;15.40;99.90
66920;DHT22;53831;52.090;17.026;2023-07-31T01:31:48;15.40;99.90
66920;DHT22;53831;52.090;17.026;2023-07-31T01:32:51;15.40;99.90
66920;DHT22;53831;52.090;17.026;2023-07-31T01:33:53;15.40;99.90
66920;DHT22;53831;52.090;17.026;2023-07-31T01:34:55;15.40;99.90
66920;DHT22;53831;52.090;17.026;2023-07-31T01:35:56;15.40;99.90
66920;DHT22;53831;52.090;17.026;2023-07-31T01:36:57;15.40;99.90
66920;DHT22;53831;52.090;17.026;2023-07-31T01:37:58;15.40;99.90
66920;DHT22;53831;52.090;17.026;2023-07-31T01:38:59;15.40;99.90
66920;DHT22;53831;52.090;17.026;2023-07-31T01:40:00;15.40;99.90
66920;DHT22;53831;52.090;17.026;2023-07-31T01:41:01;15.40;99.90
66920;DHT22;53831;52.090;17.026;2023-07-31T01:42:01;15.40;99.90
66920;DHT22;53831;52.090;17.026;2023-07-31T01:43:02;15.40;99.90
66920;DHT22;53831;52.090;17.026;2023-07-31T01:44:03;15.40;99.90
66920;DHT22;53831;52.090;17.026;2023-07-31T01:45:04;15.40;99.90
66920;DHT22;53831;52.090;17.026;2023-07-31T01:46:04;15.40;99.90
66920;DHT22;53831;52.090;17.026;2023-07-31T01:47:05;15.40;99.90
66920;DHT22;53831;52.090;17.026;2023-07-31T01:48:07;15.40;99.90
66920;DHT22;53831;52.090;17.026;2023-07-31T01:49:07;15.30;99.90
66920;DHT22;53831;52.090;17.026;2023-07-31T01:50:08;15.30;99.90
66920;DHT22;53831;52.090;17.026;2023-07-31T01:51:09;15.30;99.90
66920;DHT22;53831;52.090;17.026;2023-07-31T01:52:10;15.30;99.90
66920;DHT22;53831;52.090;17.026;2023-07-31T01:53:11;15.30;99.90
66920;DHT22;53831;52.090;17.026;2023-07-31T01:54:12;15.30;99.90
66920;DHT22;53831;52.090;17.026;2023-07-31T01:55:13;15.30;99.90
66920;DHT22;53831;52.090;17.026;2023-07-31T01:56:13;15.30;99.90
66920;DHT22;53831;52.090;17.026;2023-07-31T01:57:14;15.30;99.90
66920;DHT22;53831;52.090;17.026;2023-07-31T01:58:15;15.30;99.90
66920;DHT22;53831;52.090;17.026;2023-07-31T01:59:15;15.30;99.90
66920;DHT22;53831;52.090;17.026;2023-07-31T02:00:16;15.30;99.90
66920;DHT22;53831;52.090;17.026;2023-07-31T02:01:18;15.30;99.90
66920;DHT22;53831;52.090;17.026;2023-07-31T02:02:19;15.30;99.90
66920;DHT22;53831;52.090;17.026;2023-07-31T02:03:19;15.30;99.90
66920;DHT22;53831;52.090;17.026;2023-07-31T02:04:20;15.30;99.90
66920;DHT22;53831;52.090;17.026;2023-07-31T02:05:21;15.30;99.90
66920;DHT22;53831;52.090;17.026;2023-07-31T02:06:21;15.30;99.90
66920;DHT22;53831;52.090;17.026;2023-07-31T02:07:23;15.20;99.90
66920;DHT22;53831;52.090;17.026;2023-07-31T02:08:23;15.20;99.90
66920;DHT22;53831;52.090;17.026;2023-07-31T02:09:24;15.30;99.90
66920;DHT22;53831;52.090;17.026;2023-07-31T02:10:24;15.20;99.90
66920;DHT22;53831;52.090;17.026;2023-07-31T02:11:25;15.20;99.90
66920;DHT22;53831;52.090;17.026;2023-07-31T02:12:26;15.20;99.90
66920;DHT22;53831;52.090;17.026;2023-07-31T02:13:26;15.20;99.90
66920;DHT22;53831;52.090;17.026;2023-07-31T02:14:27;15.30;99.90
66920;DHT22;53831;52.090;17.026;2023-07-31T02:15:28;15.20;99.90
66920;DHT22;53831;52.090;17.026;2023-07-31T02:16:28;15.20;99.90
66920;DHT22;53831;52.090;17.026;2023-07-31T02:17:29;15.20;99.90
66920;DHT22;53831;52.090;17.026;2023-07-31T02:18:30;15.20;99.90
66920;DHT22;53831;52.090;17.026;2023-07-31T02:19:30;15.20;99.90
66920;DHT22;53831;52.090;17.026;2023-07-31T02:20:35;15.10;99.90
66920;DHT22;53831;52.090;17.026;2023-07-31T02:21:36;15.10;99.90
66920;DHT22;53831;52.090;17.026;2023-07-31T02:22:36;15.10;99.90
66920;DHT22;53831;52.090;17.026;2023-07-31T02:23:37;15.10;99.90
66920;DHT22;53831;52.090;17.026;2023-07-31T02:24:37;15.00;99.90
66920;DHT22;53831;52.090;17.026;2023-07-31T02:25:38;15.00;99.90
66920;DHT22;53831;52.090;17.026;2023-07-31T02:26:38;15.00;99.90
66920;DHT22;53831;52.090;17.026;2023-07-31T02:27:39;15.00;99.90
66920;DHT22;53831;52.090;17.026;2023-07-31T02:28:40;15.00;99.90
66920;DHT22;53831;52.090;17.026;2023-07-31T02:29:43;14.90;99.90
66920;DHT22;53831;52.090;17.026;2023-07-31T02:30:44;14.90;99.90
66920;DHT22;53831;52.090;17.026;2023-07-31T02:31:45;14.90;99.90
66920;DHT22;53831;52.090;17.026;2023-07-31T02:32:46;14.90;99.90
66920;DHT22;53831;52.090;17.026;2023-07-31T02:33:46;14.90;99.90
66920;DHT22;53831;52.090;17.026;2023-07-31T02:34:47;14.90;99.90
66920;DHT22;53831;52.090;17.026;2023-07-31T02:35:47;14.80;99.90
66920;DHT22;53831;52.090;17.026;2023-07-31T02:36:48;14.80;99.90
66920;DHT22;53831;52.090;17.026;2023-07-31T02:37:49;14.90;99.90
66920;DHT22;53831;52.090;17.026;2023-07-31T02:38:49;14.80;99.90
66920;DHT22;53831;52.090;17.026;2023-07-31T02:39:50;14.80;99.90
66920;DHT22;53831;52.090;17.026;2023-07-31T02:40:50;14.80;99.90
66920;DHT22;53831;52.090;17.026;2023-07-31T02:41:51;14.80;99.90
66920;DHT22;53831;52.090;17.026;2023-07-31T02:42:51;14.80;99.90
66920;DHT22;53831;52.090;17.026;2023-07-31T02:43:52;14.80;99.90
66920;DHT22;53831;52.090;17.026;2023-07-31T02:44:52;14.80;99.90
66920;DHT22;53831;52.090;17.026;2023-07-31T02:45:56;14.80;99.90
66920;DHT22;53831;52.090;17.026;2023-07-31T02:46:58;14.80;99.90
66920;DHT22;53831;52.090;17.026;2023-07-31T02:47:58;14.80;99.90
66920;DHT22;53831;52.090;17.026;2023-07-31T02:48:59;14.80;99.90
66920;DHT22;53831;52.090;17.026;2023-07-31T02:50:00;14.80;99.90
66920;DHT22;53831;52.090;17.026;2023-07-31T02:51:01;14.80;99.90
66920;DHT22;53831;52.090;17.026;2023-07-31T02:52:02;14.80;99.90
66920;DHT22;53831;52.090;17.026;2023-07-31T02:53:02;14.80;99.90
66920;DHT22;53831;52.090;17.026;2023-07-31T02:54:03;14.70;99.90
66920;DHT22;53831;52.090;17.026;2023-07-31T02:55:04;14.80;99.90
66920;DHT22;53831;52.090;17.026;2023-07-31T02:56:04;14.80;99.90
66920;DHT22;53831;52.090;17.026;2023-07-31T02:57:05;14.70;99.90
66920;DHT22;53831;52.090;17.026;2023-07-31T02:58:05;14.70;99.90
66920;DHT22;53831;52.090;17.026;2023-07-31T02:59:06;14.80;99.90
66920;DHT22;53831;52.090;17.026;2023-07-31T03:00:07;14.70;99.90
66920;DHT22;53831;52.090;17.026;2023-07-31T03:01:07;14.70;99.90
66920;DHT22;53831;52.090;17.026;2023-07-31T03:02:08;14.70;99.90
66920;DHT22;53831;52.090;17.026;2023-07-31T03:03:09;14.70;99.90
66920;DHT22;53831;52.090;17.026;2023-07-31T03:04:10;14.70;99.90
66920;DHT22;53831;52.090;17.026;2023-07-31T03:05:10;14.70;99.90
66920;DHT22;53831;52.090;17.026;2023-07-31T03:06:11;14.70;99.90
66920;DHT22;53831;52.090;17.026;2023-07-31T03:07:11;14.60;99.90
66920;DHT22;53831;52.090;17.026;2023-07-31T03:08:12;14.60;99.90
66920;DHT22;53831;52.090;17.026;2023-07-31T03:09:13;14.60;99.90
66920;DHT22;53831;52.090;17.026;2023-07-31T03:10:14;14.50;99.90
66920;DHT22;53831;52.090;17.026;2023-07-31T03:11:15;14.50;99.90
66920;DHT22;53831;52.090;17.026;2023-07-31T03:12:16;14.60;99.90
66920;DHT22;53831;52.090;17.026;2023-07-31T03:13:16;14.50;99.90
66920;DHT22;53831;52.090;17.026;2023-07-31T03:14:17;14.50;99.90
66920;DHT22;53831;52.090;17.026;2023-07-31T03:15:17;14.50;99.90
66920;DHT22;53831;52.090;17.026;2023-07-31T03:16:18;14.50;99.90
66920;DHT22;53831;52.090;17.026;2023-07-31T03:17:19;14.60;99.90
66920;DHT22;53831;52.090;17.026;2023-07-31T03:18:19;14.50;99.90
66920;DHT22;53831;52.090;17.026;2023-07-31T03:19:20;14.50;99.90
66920;DHT22;53831;52.090;17.026;2023-07-31T03:20:20;14.50;99.90
66920;DHT22;53831;52.090;17.026;2023-07-31T03:21:21;14.50;99.90
66920;DHT22;53831;52.090;17.026;2023-07-31T03:22:22;14.50;99.90
66920;DHT22;53831;52.090;17.026;2023-07-31T03:23:22;14.50;99.90
66920;DHT22;53831;52.090;17.026;2023-07-31T03:24:23;14.40;99.90
66920;DHT22;53831;52.090;17.026;2023-07-31T03:25:23;14.40;99.90
66920;DHT22;53831;52.090;17.026;2023-07-31T03:26:25;14.40;99.90
66920;DHT22;53831;52.090;17.026;2023-07-31T03:27:25;14.50;99.90
66920;DHT22;53831;52.090;17.026;2023-07-31T03:28:26;14.50;99.90
66920;DHT22;53831;52.090;17.026;2023-07-31T03:29:27;14.50;99.90
66920;DHT22;53831;52.090;17.026;2023-07-31T03:30:28;14.50;99.90
66920;DHT22;53831;52.090;17.026;2023-07-31T03:31:28;14.40;99.90
66920;DHT22;53831;52.090;17.026;2023-07-31T03:32:29;14.40;99.90
66920;DHT22;53831;52.090;17.026;2023-07-31T03:33:29;14.40;99.90
66920;DHT22;53831;52.090;17.026;2023-07-31T03:34:30;14.40;99.90
66920;DHT22;53831;52.090;17.026;2023-07-31T03:35:32;14.40;99.90
66920;DHT22;53831;52.090;17.026;2023-07-31T03:36:33;14.40;99.90
66920;DHT22;53831;52.090;17.026;2023-07-31T03:37:33;14.40;99.90
66920;DHT22;53831;52.090;17.026;2023-07-31T03:38:34;14.50;99.90
66920;DHT22;53831;52.090;17.026;2023-07-31T03:39:35;14.50;99.90
66920;DHT22;53831;52.090;17.026;2023-07-31T03:40:36;14.50;99.90
66920;DHT22;53831;52.090;17.026;2023-07-31T03:41:36;14.50;99.90
66920;DHT22;53831;52.090;17.026;2023-07-31T03:42:37;14.50;99.90
66920;DHT22;53831;52.090;17.026;2023-07-31T03:43:37;14.50;99.90
66920;DHT22;53831;52.090;17.026;2023-07-31T03:44:38;14.50;99.90
66920;DHT22;53831;52.090;17.026;2023-07-31T03:45:39;14.50;99.90
66920;DHT22;53831;52.090;17.026;2023-07-31T03:46:39;14.60;99.90
66920;DHT22;53831;52.090;17.026;2023-07-31T03:47:40;14.60;99.90
66920;DHT22;53831;52.090;17.026;2023-07-31T03:48:41;14.60;99.90
66920;DHT22;53831;52.090;17.026;2023-07-31T03:49:41;14.50;99.90
66920;DHT22;53831;52.090;17.026;2023-07-31T03:50:42;14.50;99.90
66920;DHT22;53831;52.090;17.026;2023-07-31T03:51:42;14.60;99.90
66920;DHT22;53831;52.090;17.026;2023-07-31T03:52:43;14.60;99.90
66920;DHT22;53831;52.090;17.026;2023-07-31T03:53:44;14.60;99.90
66920;DHT22;53831;52.090;17.026;2023-07-31T03:54:44;14.60;99.90
66920;DHT22;53831;52.090;17.026;2023-07-31T03:55:45;14.60;99.90
66920;DHT22;53831;52.090;17.026;2023-07-31T03:56:45;14.60;99.90
66920;DHT22;53831;52.090;17.026;2023-07-31T03:57:46;14.60;99.90
66920;DHT22;53831;52.090;17.026;2023-07-31T03:58:47;14.70;99.90
66920;DHT22;53831;52.090;17.026;2023-07-31T03:59:47;14.70;99.90
66920;DHT22;53831;52.090;17.026;2023-07-31T04:00:48;14.70;99.90
66920;DHT22;53831;52.090;17.026;2023-07-31T04:01:48;14.70;99.90
66920;DHT22;53831;52.090;17.026;2023-07-31T04:02:49;14.70;99.90
66920;DHT22;53831;52.090;17.026;2023-07-31T04:03:49;14.70;99.90
66920;DHT22;53831;52.090;17.026;2023-07-31T04:04:50;14.80;99.90
66920;DHT22;53831;52.090;17.026;2023-07-31T04:05:51;14.80;99.90
66920;DHT22;53831;52.090;17.026;2023-07-31T04:06:51;14.80;99.90
66920;DHT22;53831;52.090;17.026;2023-07-31T04:07:52;14.80;99.90
66920;DHT22;53831;52.090;17.026;2023-07-31T04:08:52;14.80;99.90
66920;DHT22;53831;52.090;17.026;2023-07-31T04:09:53;14.80;99.90
66920;DHT22;53831;52.090;17.026;2023-07-31T04:10:53;14.80;99.90
66920;DHT22;53831;52.090;17.026;2023-07-31T04:11:54;14.80;99.90
66920;DHT22;53831;52.090;17.026;2023-07-31T04:12:54;14.80;99.90
66920;DHT22;53831;52.090;17.026;2023-07-31T04:13:55;14.80;99.90
66920;DHT22;53831;52.090;17.026;2023-07-31T04:14:56;14.80;99.90
66920;DHT22;53831;52.090;17.026;2023-07-31T04:15:56;14.80;99.90
66920;DHT22;53831;52.090;17.026;2023-07-31T04:16:57;14.80;99.90
66920;DHT22;53831;52.090;17.026;2023-07-31T04:17:57;14.80;99.90
66920;DHT22;53831;52.090;17.026;2023-07-31T04:18:58;14.90;99.90
66920;DHT22;53831;52.090;17.026;2023-07-31T04:19:58;14.80;99.90
66920;DHT22;53831;52.090;17.026;2023-07-31T04:20:59;14.90;99.90
66920;DHT22;53831;52.090;17.026;2023-07-31T04:22:01;14.90;99.90
66920;DHT22;53831;52.090;17.026;2023-07-31T04:23:02;14.80;99.90
66920;DHT22;53831;52.090;17.026;2023-07-31T04:24:02;14.90;99.90
66920;DHT22;53831;52.090;17.026;2023-07-31T04:25:03;14.90;99.90
66920;DHT22;53831;52.090;17.026;2023-07-31T04:26:04;14.90;99.90
66920;DHT22;53831;52.090;17.026;2023-07-31T04:27:04;14.90;99.90
66920;DHT22;53831;52.090;17.026;2023-07-31T04:28:05;14.90;99.90
66920;DHT22;53831;52.090;17.026;2023-07-31T04:29:05;14.90;99.90
66920;DHT22;53831;52.090;17.026;2023-07-31T04:30:06;14.90;99.90
66920;DHT22;53831;52.090;17.026;2023-07-31T04:31:07;14.90;99.90
66920;DHT22;53831;52.090;17.026;2023-07-31T04:32:08;14.90;99.90
66920;DHT22;53831;52.090;17.026;2023-07-31T04:33:08;14.90;99.90
66920;DHT22;53831;52.090;17.026;2023-07-31T04:34:09;14.90;99.90
66920;DHT22;53831;52.090;17.026;2023-07-31T04:35:10;14.90;99.90
66920;DHT22;53831;52.090;17.026;2023-07-31T04:36:10;14.90;99.90
66920;DHT22;53831;52.090;17.026;2023-07-31T04:37:11;14.90;99.90
66920;DHT22;53831;52.090;17.026;2023-07-31T04:38:11;14.90;99.90
66920;DHT22;53831;52.090;17.026;2023-07-31T04:39:12;15.00;99.90
66920;DHT22;53831;52.090;17.026;2023-07-31T04:40:13;15.00;99.90
66920;DHT22;53831;52.090;17.026;2023-07-31T04:41:13;15.00;99.90
66920;DHT22;53831;52.090;17.026;2023-07-31T04:42:14;15.00;99.90
66920;DHT22;53831;52.090;17.026;2023-07-31T04:43:14;15.00;99.90
66920;DHT22;53831;52.090;17.026;2023-07-31T04:44:15;15.10;99.90
66920;DHT22;53831;52.090;17.026;2023-07-31T04:45:15;15.10;99.90
66920;DHT22;53831;52.090;17.026;2023-07-31T04:46:16;15.10;99.90
66920;DHT22;53831;52.090;17.026;2023-07-31T04:47:17;15.20;99.90
66920;DHT22;53831;52.090;17.026;2023-07-31T04:48:17;15.20;99.90
66920;DHT22;53831;52.090;17.026;2023-07-31T04:49:18;15.30;99.90
66920;DHT22;53831;52.090;17.026;2023-07-31T04:50:19;15.30;99.90
66920;DHT22;53831;52.090;17.026;2023-07-31T04:51:20;15.30;99.90
66920;DHT22;53831;52.090;17.026;2023-07-31T04:52:21;15.30;99.90
66920;DHT22;53831;52.090;17.026;2023-07-31T04:53:22;15.40;99.90
66920;DHT22;53831;52.090;17.026;2023-07-31T04:54:22;15.40;99.90
66920;DHT22;53831;52.090;17.026;2023-07-31T04:55:23;15.40;99.90
66920;DHT22;53831;52.090;17.026;2023-07-31T04:56:24;15.40;99.90
66920;DHT22;53831;52.090;17.026;2023-07-31T04:57:24;15.50;99.90
66920;DHT22;53831;52.090;17.026;2023-07-31T04:58:25;15.60;99.90
66920;DHT22;53831;52.090;17.026;2023-07-31T04:59:25;15.60;99.90
66920;DHT22;53831;52.090;17.026;2023-07-31T05:00:26;15.60;99.90
66920;DHT22;53831;52.090;17.026;2023-07-31T05:01:27;15.70;99.90
66920;DHT22;53831;52.090;17.026;2023-07-31T05:02:27;15.70;99.90
66920;DHT22;53831;52.090;17.026;2023-07-31T05:03:28;15.80;99.90
66920;DHT22;53831;52.090;17.026;2023-07-31T05:04:29;15.80;99.90
66920;DHT22;53831;52.090;17.026;2023-07-31T05:05:29;15.80;99.90
66920;DHT22;53831;52.090;17.026;2023-07-31T05:06:30;15.80;99.90
66920;DHT22;53831;52.090;17.026;2023-07-31T05:07:31;15.80;99.90
66920;DHT22;53831;52.090;17.026;2023-07-31T05:08:31;15.90;99.90
66920;DHT22;53831;52.090;17.026;2023-07-31T05:09:32;15.80;99.90
66920;DHT22;53831;52.090;17.026;2023-07-31T05:10:32;15.80;99.90
66920;DHT22;53831;52.090;17.026;2023-07-31T05:11:33;15.90;99.90
66920;DHT22;53831;52.090;17.026;2023-07-31T05:12:34;15.90;99.90
66920;DHT22;53831;52.090;17.026;2023-07-31T05:13:34;15.90;99.90
66920;DHT22;53831;52.090;17.026;2023-07-31T05:14:35;15.90;99.90
66920;DHT22;53831;52.090;17.026;2023-07-31T05:15:35;15.90;99.90
66920;DHT22;53831;52.090;17.026;2023-07-31T05:16:36;16.00;99.90
66920;DHT22;53831;52.090;17.026;2023-07-31T05:17:37;16.00;99.90
66920;DHT22;53831;52.090;17.026;2023-07-31T05:18:37;16.00;99.90
66920;DHT22;53831;52.090;17.026;2023-07-31T05:19:38;16.10;99.90
66920;DHT22;53831;52.090;17.026;2023-07-31T05:20:38;16.10;99.90
66920;DHT22;53831;52.090;17.026;2023-07-31T05:21:39;16.10;99.90
66920;DHT22;53831;52.090;17.026;2023-07-31T05:22:40;16.10;99.90
66920;DHT22;53831;52.090;17.026;2023-07-31T05:23:40;16.20;99.90
66920;DHT22;53831;52.090;17.026;2023-07-31T05:24:41;16.20;99.90
66920;DHT22;53831;52.090;17.026;2023-07-31T05:25:42;16.20;99.90
66920;DHT22;53831;52.090;17.026;2023-07-31T05:26:42;16.20;99.90
66920;DHT22;53831;52.090;17.026;2023-07-31T05:27:43;16.20;99.90
66920;DHT22;53831;52.090;17.026;2023-07-31T05:28:43;16.20;99.90
66920;DHT22;53831;52.090;17.026;2023-07-31T05:29:44;16.20;99.90
66920;DHT22;53831;52.090;17.026;2023-07-31T05:30:45;16.20;99.90
66920;DHT22;53831;52.090;17.026;2023-07-31T05:31:46;16.20;99.90
66920;DHT22;53831;52.090;17.026;2023-07-31T05:32:47;16.20;99.90
66920;DHT22;53831;52.090;17.026;2023-07-31T05:33:47;16.20;99.90
66920;DHT22;53831;52.090;17.026;2023-07-31T05:34:50;16.20;99.90
66920;DHT22;53831;52.090;17.026;2023-07-31T05:35:51;16.20;99.90
66920;DHT22;53831;52.090;17.026;2023-07-31T05:36:52;16.30;99.90
66920;DHT22;53831;52.090;17.026;2023-07-31T05:37:52;16.30;99.90
66920;DHT22;53831;52.090;17.026;2023-07-31T05:38:53;16.30;99.90
66920;DHT22;53831;52.090;17.026;2023-07-31T05:39:54;16.30;99.90
66920;DHT22;53831;52.090;17.026;2023-07-31T05:40:54;16.50;99.90
66920;DHT22;53831;52.090;17.026;2023-07-31T05:41:55;16.40;99.90
66920;DHT22;53831;52.090;17.026;2023-07-31T05:42:55;16.40;99.90
66920;DHT22;53831;52.090;17.026;2023-07-31T05:43:56;16.50;99.90
66920;DHT22;53831;52.090;17.026;2023-07-31T05:44:57;16.50;99.90
66920;DHT22;53831;52.090;17.026;2023-07-31T05:45:57;16.50;99.90
66920;DHT22;53831;52.090;17.026;2023-07-31T05:46:58;16.60;99.90
66920;DHT22;53831;52.090;17.026;2023-07-31T05:47:58;16.60;99.90
66920;DHT22;53831;52.090;17.026;2023-07-31T05:48:59;16.60;99.90
66920;DHT22;53831;52.090;17.026;2023-07-31T05:50:01;16.70;99.90
66920;DHT22;53831;52.090;17.026;2023-07-31T05:51:01;16.70;99.90
66920;DHT22;53831;52.090;17.026;2023-07-31T05:52:03;16.70;99.90
66920;DHT22;53831;52.090;17.026;2023-07-31T05:53:04;16.70;99.90
66920;DHT22;53831;52.090;17.026;2023-07-31T05:54:04;16.70;99.90
66920;DHT22;53831;52.090;17.026;2023-07-31T05:55:05;16.80;99.90
66920;DHT22;53831;52.090;17.026;2023-07-31T05:56:09;16.80;99.90
66920;DHT22;53831;52.090;17.026;2023-07-31T05:57:09;16.90;99.90
66920;DHT22;53831;52.090;17.026;2023-07-31T05:58:10;16.90;99.90
66920;DHT22;53831;52.090;17.026;2023-07-31T05:59:11;16.90;99.90
66920;DHT22;53831;52.090;17.026;2023-07-31T06:00:13;16.90;99.90
66920;DHT22;53831;52.090;17.026;2023-07-31T06:01:15;16.90;99.90
66920;DHT22;53831;52.090;17.026;2023-07-31T06:02:15;16.90;99.90
66920;DHT22;53831;52.090;17.026;2023-07-31T06:03:16;17.00;99.90
66920;DHT22;53831;52.090;17.026;2023-07-31T06:04:16;17.00;99.90
66920;DHT22;53831;52.090;17.026;2023-07-31T06:05:17;17.00;99.90
66920;DHT22;53831;52.090;17.026;2023-07-31T06:06:17;17.10;99.90
66920;DHT22;53831;52.090;17.026;2023-07-31T06:07:18;17.10;99.90
66920;DHT22;53831;52.090;17.026;2023-07-31T06:08:19;17.10;99.90
66920;DHT22;53831;52.090;17.026;2023-07-31T06:09:20;17.20;99.90
66920;DHT22;53831;52.090;17.026;2023-07-31T06:10:20;17.30;99.90
66920;DHT22;53831;52.090;17.026;2023-07-31T06:11:21;17.30;99.90
66920;DHT22;53831;52.090;17.026;2023-07-31T06:12:22;17.30;99.90
66920;DHT22;53831;52.090;17.026;2023-07-31T06:13:23;17.40;99.90
66920;DHT22;53831;52.090;17.026;2023-07-31T06:14:23;17.40;99.90
66920;DHT22;53831;52.090;17.026;2023-07-31T06:15:24;17.40;99.90
66920;DHT22;53831;52.090;17.026;2023-07-31T06:16:27;17.50;99.90
66920;DHT22;53831;52.090;17.026;2023-07-31T06:17:28;17.50;99.90
66920;DHT22;53831;52.090;17.026;2023-07-31T06:18:29;17.60;99.90
66920;DHT22;53831;52.090;17.026;2023-07-31T06:19:30;17.60;99.90
66920;DHT22;53831;52.090;17.026;2023-07-31T06:20:31;17.60;99.90
66920;DHT22;53831;52.090;17.026;2023-07-31T06:21:31;17.50;99.90
66920;DHT22;53831;52.090;17.026;2023-07-31T06:22:32;17.60;99.90
66920;DHT22;53831;52.090;17.026;2023-07-31T06:23:33;17.50;99.90
66920;DHT22;53831;52.090;17.026;2023-07-31T06:24:33;17.40;99.90
66920;DHT22;53831;52.090;17.026;2023-07-31T06:25:34;17.50;99.90
66920;DHT22;53831;52.090;17.026;2023-07-31T06:26:34;17.40;99.90